Terminal Aerodrome Forecast
Issued by NWS

Home | Current Version | Previous Version | Text Only | Print | Product List | Glossary On
Versions: 1 2 3 4 5 6 7 8 9 10 11 12 13 14 15 16
000
FTUS45 KTFX 192300
TAFHVR
TAF
KHVR 192330Z 2000/2024 24010KT P6SM FEW200
     FM200200 VRB05KT P6SM BKN080
     FM201100 26020G30KT P6SM SCT140
      TEMPO 2015/2018 26040G50KT
     FM201800 28020G30KT P6SM SKC=

USA.gov is the U.S. government's official web portal to all federal, state and local government web resources and services.